Cherry Point MCAS /Cunningham Field/
KNKT : now visible

Airfield :











YOU CAN JOIN US ON...

 
LOGIN :

Register | Disclaimer

   EN    FR    IT 

 









Legend :    VFR   Marginal VFR   IFR   Intensive IFR   Very Intensive IFR
Visi :
Ceiling :
>= 8 km
>= 3000ft
5 to 8 km
1000 to 3000 ft
1500m to 5 km
500 to 1000 ft
800 to 1500m
200 to 500 ft
< 800m
< 200 ft
Symbols :   Thunderstorms  Fog  Heavy snow  Heavy precipitations  Wind > 20 kt






- Airport Elevation : 29 ft


KNKT - Cherry Point MCAS /Cunningham Field/

CURRENT METAR :
  • 151254Z 23003KT 7SM MIFG CLR 04/03 A3006 RMK AO2 SLP176 VIS E 5 T00440028

EXPIRED METARs :
  • 151154Z 21003KT 10SM CLR 04/03 A3004 RMK AO2 SLP168 T00440028 10100 20039 51025
  • 151054Z 28006KT 10SM CLR 07/04 A3001 RMK AO2 SLP160 T00720044

TAF TAF KNKT
Valid from the 15 at 09:00 until the 16 at 09:00 UTC


1509/1609 26009KT 9999 SKC QNH2995INS
BECMG 1523/1601 VRB03KT QNH3015INS T07/1510Z T16/1520Z



MET'MAP, your aeronautical weather chart ! - Copyright ORBIFLY December 2007 - Disclaimer

ORBIFLY MET'MAP TEAM :

Programming & Development : Alexandra Zaïnal
Concept & original design : Baudouin d'Aumeries
Assistance for programming : Marc-Olivier Méhu
Technical & hardware support : Manuel Goepfert

Contact : metmap@orbifly.com




SOURCES & CREDITS :

   NOAA       Earth
Advisory